createdAt,value
2024-03-16T00:00:52.183Z,100.00
2024-03-16T00:03:20.534Z,99.71
2024-03-16T00:05:47.797Z,100.00
2024-03-16T00:08:14.801Z,99.88
2024-03-16T00:10:41.779Z,99.70
2024-03-16T00:13:08.936Z,99.44
2024-03-16T00:15:36.057Z,99.48
2024-03-16T00:18:03.221Z,99.40
2024-03-16T00:20:32.000Z,99.05
2024-03-16T00:22:59.374Z,99.68
2024-03-16T00:25:26.645Z,98.78
2024-03-16T00:27:54.179Z,98.79
2024-03-16T00:30:21.500Z,98.75
2024-03-16T00:32:48.735Z,98.56
2024-03-16T00:35:15.721Z,99.36
2024-03-16T00:37:42.678Z,100.00
2024-03-16T00:40:10.683Z,100.00
2024-03-16T00:42:37.812Z,99.85
2024-03-16T00:45:05.598Z,100.00
2024-03-16T00:47:32.869Z,100.00
2024-03-16T00:49:59.846Z,100.00
2024-03-16T00:52:26.847Z,100.00
2024-03-16T00:54:53.951Z,100.00
2024-03-16T00:57:20.910Z,100.00
2024-03-16T00:59:47.855Z,100.00
2024-03-16T01:02:14.822Z,100.00
2024-03-16T01:04:41.883Z,100.00
2024-03-16T01:07:08.993Z,100.00
2024-03-16T01:09:36.038Z,100.00
2024-03-16T01:12:03.982Z,100.00
2024-03-16T01:14:31.057Z,100.00
2024-03-16T01:16:57.993Z,100.00
2024-03-16T01:19:26.395Z,100.00
2024-03-16T01:21:53.408Z,100.00
2024-03-16T01:24:20.383Z,100.00
2024-03-16T01:26:48.561Z,100.00
2024-03-16T01:29:17.238Z,100.00
2024-03-16T01:31:44.425Z,100.00
2024-03-16T01:34:12.051Z,100.00
2024-03-16T01:36:39.525Z,100.00
2024-03-16T01:39:06.997Z,100.00
2024-03-16T01:41:33.978Z,100.00
2024-03-16T01:44:11.549Z,100.00
2024-03-16T01:46:42.826Z,100.00
2024-03-16T01:49:10.665Z,100.00
2024-03-16T01:51:39.479Z,100.00
2024-03-16T01:54:07.381Z,100.00
2024-03-16T01:56:35.448Z,100.00
2024-03-16T01:59:02.510Z,100.00
2024-03-16T02:01:30.117Z,100.00
2024-03-16T02:03:59.103Z,100.00
2024-03-16T02:06:28.450Z,100.00
2024-03-16T02:08:55.968Z,100.00
2024-03-16T02:11:23.406Z,100.00
2024-03-16T02:13:50.598Z,99.75
2024-03-16T02:16:17.670Z,100.00
2024-03-16T02:18:44.736Z,100.00
2024-03-16T02:21:11.885Z,100.00
2024-03-16T02:23:40.897Z,100.00
2024-03-16T02:26:12.171Z,100.00
2024-03-16T02:28:39.163Z,100.00
2024-03-16T02:31:06.490Z,100.00
2024-03-16T02:33:33.798Z,100.00
2024-03-16T02:36:00.808Z,100.00
2024-03-16T02:38:27.767Z,100.00
2024-03-16T02:40:54.913Z,100.00
2024-03-16T02:43:21.887Z,100.00
2024-03-16T02:45:48.964Z,100.00
2024-03-16T02:48:15.998Z,100.00
2024-03-16T02:50:43.075Z,100.00
2024-03-16T02:53:10.090Z,100.00
2024-03-16T02:55:37.028Z,100.00
2024-03-16T02:58:04.334Z,100.00
2024-03-16T03:00:31.463Z,100.00
2024-03-16T03:02:58.671Z,100.00
2024-03-16T03:05:25.748Z,100.00
2024-03-16T03:07:53.928Z,100.00
2024-03-16T03:10:23.028Z,100.00
2024-03-16T03:12:50.936Z,100.00
2024-03-16T03:15:18.152Z,100.00
2024-03-16T03:17:45.216Z,100.00
2024-03-16T03:20:12.517Z,100.00
2024-03-16T03:22:39.697Z,100.00
2024-03-16T03:25:07.082Z,100.00
2024-03-16T03:27:35.095Z,100.00
2024-03-16T03:30:02.316Z,100.00
2024-03-16T03:32:31.644Z,100.00
2024-03-16T03:34:58.733Z,100.00
2024-03-16T03:37:25.703Z,100.00
2024-03-16T03:39:54.055Z,100.00
2024-03-16T03:42:26.758Z,100.00
2024-03-16T03:45:12.885Z,100.00
2024-03-16T03:47:59.407Z,100.00
2024-03-16T03:50:34.029Z,100.00
2024-03-16T03:53:03.792Z,100.00
2024-03-16T03:55:31.313Z,100.00
2024-03-16T03:57:58.638Z,100.00
2024-03-16T04:00:25.762Z,100.00
2024-03-16T04:02:52.798Z,100.00
2024-03-16T04:05:19.821Z,100.00
2024-03-16T04:07:47.216Z,100.00
2024-03-16T04:10:14.303Z,100.00
2024-03-16T04:12:41.373Z,100.00
2024-03-16T04:15:08.493Z,100.00
2024-03-16T04:17:35.534Z,100.00
2024-03-16T04:20:02.546Z,100.00
2024-03-16T04:22:30.654Z,100.00
2024-03-16T04:24:57.705Z,100.00
2024-03-16T04:27:24.699Z,100.00
2024-03-16T04:29:51.748Z,100.00
2024-03-16T04:32:18.821Z,100.00
2024-03-16T04:34:45.779Z,100.00
2024-03-16T04:37:12.820Z,100.00
2024-03-16T04:39:44.879Z,100.00
2024-03-16T04:42:12.661Z,100.00
2024-03-16T04:44:39.741Z,100.00
2024-03-16T04:47:07.219Z,100.00
2024-03-16T04:49:34.374Z,100.00
2024-03-16T04:52:01.690Z,100.00
2024-03-16T04:54:28.711Z,100.00
2024-03-16T04:56:55.676Z,100.00
2024-03-16T04:59:22.711Z,100.00
2024-03-16T05:01:49.861Z,100.00
2024-03-16T05:04:17.158Z,100.00
2024-03-16T05:06:44.225Z,100.00
2024-03-16T05:09:12.252Z,100.00
2024-03-16T05:11:39.222Z,100.00
2024-03-16T05:14:09.557Z,100.00
2024-03-16T05:16:41.062Z,100.00
2024-03-16T05:23:06.123Z,100.00
2024-03-16T05:25:33.114Z,100.00
2024-03-16T05:28:00.325Z,100.00
2024-03-16T05:30:27.772Z,100.00
2024-03-16T05:32:54.755Z,100.00
2024-03-16T05:35:21.705Z,100.00
2024-03-16T05:37:48.778Z,100.00
2024-03-16T05:40:15.859Z,100.00
2024-03-16T05:42:42.862Z,100.00
2024-03-16T05:45:09.955Z,99.26
2024-03-16T05:47:37.641Z,96.23
2024-03-16T05:50:05.152Z,96.60
2024-03-16T05:52:32.248Z,95.65
2024-03-16T05:54:59.232Z,95.52
2024-03-16T05:57:26.210Z,97.74
2024-03-16T05:59:54.149Z,99.46
2024-03-16T06:02:23.415Z,100.00
2024-03-16T06:04:50.707Z,100.00
2024-03-16T06:07:18.050Z,100.00
2024-03-16T06:09:45.103Z,100.00
2024-03-16T06:12:12.131Z,100.00
2024-03-16T06:14:39.298Z,100.00
2024-03-16T06:17:06.318Z,100.00
2024-03-16T06:19:33.404Z,100.00
2024-03-16T06:22:00.502Z,100.00
2024-03-16T06:24:27.521Z,99.88
2024-03-16T06:27:01.843Z,99.72
2024-03-16T06:29:29.073Z,98.53
2024-03-16T06:32:06.732Z,97.71
2024-03-16T06:34:37.514Z,98.45
2024-03-16T06:37:05.236Z,96.69
2024-03-16T06:39:32.437Z,97.77
2024-03-16T06:41:59.445Z,96.86
2024-03-16T06:44:26.455Z,95.92
2024-03-16T06:46:53.610Z,96.55
2024-03-16T06:49:20.716Z,96.26
2024-03-16T06:51:47.839Z,96.03
2024-03-16T06:54:14.915Z,96.74
2024-03-16T06:56:42.117Z,95.74
2024-03-16T06:59:09.135Z,96.97
2024-03-16T07:01:36.191Z,97.11
2024-03-16T07:04:03.408Z,96.43
2024-03-16T07:06:30.907Z,98.22
2024-03-16T07:09:01.320Z,96.88
2024-03-16T07:11:28.948Z,95.78
2024-03-16T07:13:56.044Z,96.16
2024-03-16T07:23:04.705Z,94.13
2024-03-16T07:25:31.666Z,91.92
2024-03-16T07:27:58.828Z,91.62
2024-03-16T07:30:26.505Z,93.13
2024-03-16T07:32:53.840Z,92.89
2024-03-16T07:35:20.910Z,94.16
2024-03-16T07:37:48.915Z,93.30
2024-03-16T07:40:17.364Z,96.61
2024-03-16T07:42:45.513Z,98.95
2024-03-16T07:45:14.070Z,100.00
2024-03-16T07:47:41.345Z,99.61
2024-03-16T07:50:08.865Z,99.68
2024-03-16T07:52:35.975Z,99.04
2024-03-16T07:55:07.702Z,98.69
2024-03-16T07:57:35.294Z,97.98
2024-03-16T08:00:02.567Z,97.11
2024-03-16T08:02:39.636Z,98.19
2024-03-16T08:05:06.698Z,100.00
2024-03-16T08:07:33.711Z,100.00
2024-03-16T08:10:02.655Z,100.00
2024-03-16T08:12:33.543Z,100.00
2024-03-16T08:15:01.292Z,98.52
2024-03-16T08:17:31.968Z,96.57
2024-03-16T08:19:59.259Z,96.04
2024-03-16T08:22:26.220Z,98.05
2024-03-16T08:24:53.486Z,96.99
2024-03-16T08:27:20.578Z,97.13
2024-03-16T08:29:47.937Z,96.48
2024-03-16T08:32:16.259Z,94.95
2024-03-16T08:34:44.361Z,95.59
2024-03-16T08:37:13.171Z,95.33
2024-03-16T08:39:42.265Z,95.55
2024-03-16T08:42:09.353Z,95.46
2024-03-16T08:44:36.324Z,97.80
2024-03-16T08:47:03.403Z,95.92
2024-03-16T08:49:30.487Z,95.40
2024-03-16T08:51:59.540Z,95.01
2024-03-16T08:54:26.623Z,96.75
2024-03-16T08:56:54.133Z,98.42
2024-03-16T08:59:21.109Z,98.72
2024-03-16T09:01:48.187Z,97.18
2024-03-16T09:04:16.592Z,97.29
2024-03-16T09:06:43.727Z,96.80
2024-03-16T09:09:13.800Z,95.96
2024-03-16T09:11:41.254Z,94.83
2024-03-16T09:14:08.385Z,95.10
2024-03-16T09:16:41.926Z,94.35
2024-03-16T09:19:09.645Z,93.98
2024-03-16T09:21:36.921Z,93.33
2024-03-16T09:24:04.838Z,92.18
2024-03-16T09:26:32.070Z,90.96
2024-03-16T09:28:59.053Z,92.62
2024-03-16T09:31:26.365Z,91.03
2024-03-16T09:33:53.786Z,89.03
2024-03-16T09:36:21.239Z,87.87
2024-03-16T09:38:49.101Z,88.10
2024-03-16T09:41:19.920Z,85.88
